Time;durP1;ratioP1;P1;durP2;ratioP2;P2;SDS_P1;SDS_P2;PMS_P1;PMS_P2;Temp;Humidity;BMP_temperature;BMP_pressure;BME280_temperature;BME280_humidity;BME280_pressure;Samples;Min_cycle;Max_cycle;Signal;HPM_P1;HPM_P2
2023/03/16 00:00:41;;;;;;;11.45;5.40;;;;;;;;;;6122844;23;20343;-73
2023/03/16 00:03:07;;;;;;;9.93;4.93;;;;;;;;;;6123069;23;20012;-73
2023/03/16 00:05:32;;;;;;;10.75;5.15;;;;;;;;;;6123311;23;20017;-73
2023/03/16 00:07:58;;;;;;;9.02;5.15;;;;;;;;;;6123182;23;20037;-74
2023/03/16 00:10:26;;;;;;;9.90;4.78;;;;;;;;;;6123441;23;20020;-74
2023/03/16 00:12:52;;;;;;;8.98;4.78;;;;;;;;;;6122868;23;20028;-74
2023/03/16 00:15:18;;;;;;;7.30;4.50;;;;;;;;;;6123040;23;20006;-74
2023/03/16 00:17:47;;;;;;;8.18;4.68;;;;;;;;;;6122883;23;20478;-74
2023/03/16 00:20:13;;;;;;;9.23;4.47;;;;;;;;;;6123064;23;20001;-74
2023/03/16 00:22:38;;;;;;;6.40;4.18;;;;;;;;;;6122719;23;20010;-74
2023/03/16 00:25:04;;;;;;;8.82;4.30;;;;;;;;;;6123027;23;20088;-74
2023/03/16 00:27:30;;;;;;;8.10;4.32;;;;;;;;;;6122840;23;20307;-74
2023/03/16 00:29:55;;;;;;;9.18;4.38;;;;;;;;;;6123316;23;20475;-74
2023/03/16 00:32:29;;;;;;;6.82;4.18;;;;;;;;;;6096628;23;20033;-74
2023/03/16 00:34:54;;;;;;;7.18;4.05;;;;;;;;;;6123211;23;20010;-74
2023/03/16 00:37:22;;;;;;;7.50;3.75;;;;;;;;;;6122844;23;20010;-74
2023/03/16 00:39:48;;;;;;;7.00;4.03;;;;;;;;;;6123178;23;20005;-74
2023/03/16 00:42:15;;;;;;;8.10;4.20;;;;;;;;;;6122598;23;20045;-73
2023/03/16 00:44:41;;;;;;;8.63;4.35;;;;;;;;;;6123042;23;20419;-73
2023/03/16 00:47:07;;;;;;;6.97;3.80;;;;;;;;;;6122748;23;20037;-74
2023/03/16 00:49:35;;;;;;;6.68;3.83;;;;;;;;;;6123071;23;20438;-75
2023/03/16 00:52:01;;;;;;;7.57;3.50;;;;;;;;;;6122729;23;20006;-74
2023/03/16 00:54:28;;;;;;;5.93;3.53;;;;;;;;;;6122956;23;20074;-73
2023/03/16 00:56:53;;;;;;;8.32;3.60;;;;;;;;;;6122982;23;20006;-73
2023/03/16 00:59:20;;;;;;;6.75;3.90;;;;;;;;;;6122952;23;20072;-75
2023/03/16 01:01:45;;;;;;;6.10;3.63;;;;;;;;;;6122687;23;20029;-75
2023/03/16 01:04:11;;;;;;;5.80;3.60;;;;;;;;;;6122730;23;20073;-75
2023/03/16 01:06:37;;;;;;;8.85;3.78;;;;;;;;;;6124041;23;20010;-73
2023/03/16 01:09:04;;;;;;;8.00;4.10;;;;;;;;;;6124774;23;20002;-74
2023/03/16 01:11:32;;;;;;;6.50;3.55;;;;;;;;;;6124655;23;20002;-74
2023/03/16 01:13:58;;;;;;;5.68;3.40;;;;;;;;;;6124709;23;20053;-74
2023/03/16 01:16:24;;;;;;;5.70;3.35;;;;;;;;;;6124924;23;20006;-75
2023/03/16 01:18:51;;;;;;;9.20;3.92;;;;;;;;;;6124639;23;20013;-74
2023/03/16 01:21:16;;;;;;;6.80;3.45;;;;;;;;;;6124792;23;20316;-75
2023/03/16 01:23:43;;;;;;;6.38;3.30;;;;;;;;;;6124403;23;20077;-74
2023/03/16 01:26:09;;;;;;;7.00;3.22;;;;;;;;;;6124982;23;20029;-74
2023/03/16 01:28:34;;;;;;;8.63;3.38;;;;;;;;;;6124166;23;20624;-74
2023/03/16 01:31:10;;;;;;;5.93;3.17;;;;;;;;;;6124620;23;20398;-75
2023/03/16 01:33:36;;;;;;;5.43;3.15;;;;;;;;;;6124345;23;20775;-74
2023/03/16 01:36:06;;;;;;;5.53;3.08;;;;;;;;;;6124529;23;20013;-75
2023/03/16 01:38:32;;;;;;;5.63;2.97;;;;;;;;;;6124474;23;20081;-73
2023/03/16 01:40:58;;;;;;;4.95;2.70;;;;;;;;;;6124639;23;20013;-75
2023/03/16 01:43:26;;;;;;;5.80;3.00;;;;;;;;;;6123893;23;20615;-74
2023/03/16 01:46:06;;;;;;;5.03;3.03;;;;;;;;;;6124721;23;20006;-74
2023/03/16 01:48:39;;;;;;;4.68;2.90;;;;;;;;;;6124249;23;20002;-75
2023/03/16 01:51:24;;;;;;;5.95;2.85;;;;;;;;;;6124968;23;20006;-74
2023/03/16 01:53:54;;;;;;;5.38;3.20;;;;;;;;;;6124223;23;20036;-75
2023/03/16 01:56:29;;;;;;;6.30;2.97;;;;;;;;;;6124516;23;20009;-75
2023/03/16 01:58:58;;;;;;;5.63;2.67;;;;;;;;;;6123837;23;20002;-75
2023/03/16 02:01:26;;;;;;;4.57;2.83;;;;;;;;;;6124153;23;19998;-77
2023/03/16 02:03:56;;;;;;;5.05;2.90;;;;;;;;;;6123888;23;20088;-73
2023/03/16 02:06:24;;;;;;;4.38;2.60;;;;;;;;;;6124466;23;19998;-75
2023/03/16 02:08:54;;;;;;;5.50;2.60;;;;;;;;;;6123993;23;20012;-75
2023/03/16 02:11:21;;;;;;;5.10;2.80;;;;;;;;;;6124465;23;20013;-75
2023/03/16 02:13:47;;;;;;;4.35;3.10;;;;;;;;;;6123984;23;20379;-74
2023/03/16 02:16:21;;;;;;;6.30;2.83;;;;;;;;;;6124239;23;20435;-75
2023/03/16 02:18:48;;;;;;;4.50;2.80;;;;;;;;;;6123817;23;19998;-76
2023/03/16 02:21:24;;;;;;;5.72;2.80;;;;;;;;;;6124197;23;20013;-76
2023/03/16 02:23:51;;;;;;;5.07;2.95;;;;;;;;;;6123723;23;20053;-76
2023/03/16 02:26:34;;;;;;;6.38;2.97;;;;;;;;;;6124412;23;20092;-76
2023/03/16 02:29:18;;;;;;;6.35;2.88;;;;;;;;;;6123976;23;20339;-76
2023/03/16 02:31:44;;;;;;;6.72;2.92;;;;;;;;;;6124074;23;20394;-75
2023/03/16 02:34:11;;;;;;;6.50;3.10;;;;;;;;;;6123644;23;20012;-75
2023/03/16 02:36:40;;;;;;;5.13;2.75;;;;;;;;;;6123796;23;20002;-75
2023/03/16 02:39:06;;;;;;;4.38;2.58;;;;;;;;;;6123784;23;20061;-75
2023/03/16 02:41:31;;;;;;;5.13;2.80;;;;;;;;;;6123897;23;20006;-77
2023/03/16 02:44:34;;;;;;;5.38;2.67;;;;;;;;;;6123596;23;20014;-76
2023/03/16 02:47:04;;;;;;;4.40;2.70;;;;;;;;;;6124019;23;20032;-76
2023/03/16 02:49:36;;;;;;;3.72;2.50;;;;;;;;;;6123834;23;20057;-75
2023/03/16 02:52:03;;;;;;;5.68;2.78;;;;;;;;;;6123952;23;20435;-77
2023/03/16 02:54:29;;;;;;;5.13;2.50;;;;;;;;;;6123055;23;20033;-76
2023/03/16 02:56:54;;;;;;;4.70;2.58;;;;;;;;;;6123635;23;20009;-77
2023/03/16 02:59:20;;;;;;;6.55;2.50;;;;;;;;;;6123687;23;20108;-77
2023/03/16 03:01:46;;;;;;;4.47;3.00;;;;;;;;;;6123993;23;20069;-76
2023/03/16 03:04:12;;;;;;;5.78;2.88;;;;;;;;;;6123531;23;20005;-76
2023/03/16 03:06:37;;;;;;;5.43;2.50;;;;;;;;;;6123814;23;20006;-76
2023/03/16 03:09:03;;;;;;;5.28;2.47;;;;;;;;;;6123382;23;20077;-75
2023/03/16 03:11:29;;;;;;;4.18;2.33;;;;;;;;;;6123656;23;20013;-76
2023/03/16 03:13:55;;;;;;;4.35;2.47;;;;;;;;;;6123401;23;20002;-76
2023/03/16 03:16:21;;;;;;;5.18;2.83;;;;;;;;;;6123632;23;20013;-72
2023/03/16 03:18:46;;;;;;;5.38;2.70;;;;;;;;;;6123588;23;19998;-76
2023/03/16 03:21:12;;;;;;;5.10;2.85;;;;;;;;;;6123738;23;20056;-75
2023/03/16 03:23:37;;;;;;;5.95;2.25;;;;;;;;;;6097487;23;20391;-76
2023/03/16 03:26:03;;;;;;;5.72;2.53;;;;;;;;;;6123464;23;20006;-77
2023/03/16 03:28:28;;;;;;;3.85;2.40;;;;;;;;;;6122854;23;20002;-74
2023/03/16 03:30:54;;;;;;;4.53;2.33;;;;;;;;;;6123468;23;20130;-76
2023/03/16 03:33:21;;;;;;;8.13;3.17;;;;;;;;;;6123295;23;20002;-76
2023/03/16 03:35:47;;;;;;;5.75;2.83;;;;;;;;;;6123368;23;20006;-76
2023/03/16 03:38:12;;;;;;;5.22;2.80;;;;;;;;;;6123248;23;20060;-77
2023/03/16 03:40:38;;;;;;;5.13;2.80;;;;;;;;;;6123709;23;20008;-76
2023/03/16 03:43:04;;;;;;;6.10;3.22;;;;;;;;;;6123236;23;20010;-76
2023/03/16 03:45:30;;;;;;;5.78;3.03;;;;;;;;;;6123049;23;20438;-74
2023/03/16 03:47:56;;;;;;;3.97;2.78;;;;;;;;;;6123336;23;20002;-77
2023/03/16 03:50:21;;;;;;;5.50;2.90;;;;;;;;;;6123148;23;20002;-77
2023/03/16 03:52:47;;;;;;;6.20;2.72;;;;;;;;;;6097269;23;20017;-76
2023/03/16 03:55:12;;;;;;;6.72;2.72;;;;;;;;;;6122937;23;20006;-76
2023/03/16 03:57:38;;;;;;;6.18;2.90;;;;;;;;;;6123398;23;20002;-76
2023/03/16 04:00:10;;;;;;;5.70;2.92;;;;;;;;;;6097006;23;20042;-76
2023/03/16 04:02:36;;;;;;;5.90;2.88;;;;;;;;;;6123261;23;20056;-76
2023/03/16 04:05:01;;;;;;;5.18;2.88;;;;;;;;;;6122634;23;20347;-76
2023/03/16 04:07:26;;;;;;;4.90;2.97;;;;;;;;;;6123268;23;20049;-75
2023/03/16 04:09:52;;;;;;;4.82;2.92;;;;;;;;;;6122879;23;20025;-76
2023/03/16 04:12:17;;;;;;;6.75;3.15;;;;;;;;;;6123238;23;20006;-77
2023/03/16 04:14:42;;;;;;;5.40;2.95;;;;;;;;;;6122908;23;20014;-73
2023/03/16 04:17:08;;;;;;;5.93;3.20;;;;;;;;;;6123248;23;20079;-74
2023/03/16 04:19:33;;;;;;;4.95;2.40;;;;;;;;;;6122875;23;20044;-74
2023/03/16 04:21:59;;;;;;;5.47;2.45;;;;;;;;;;6123018;23;20006;-77
2023/03/16 04:24:24;;;;;;;4.45;2.47;;;;;;;;;;6122675;23;20001;-76
2023/03/16 04:26:49;;;;;;;4.35;2.17;;;;;;;;;;6122742;23;20002;-76
2023/03/16 04:29:17;;;;;;;4.65;2.33;;;;;;;;;;6123015;23;20038;-76
2023/03/16 04:31:43;;;;;;;6.55;2.50;;;;;;;;;;6123493;23;20030;-76
2023/03/16 04:34:10;;;;;;;7.03;2.60;;;;;;;;;;6123045;23;20006;-75
2023/03/16 04:36:37;;;;;;;4.32;2.33;;;;;;;;;;6122876;23;20005;-76
2023/03/16 04:39:03;;;;;;;4.28;2.35;;;;;;;;;;6122676;23;20006;-75
2023/03/16 04:41:29;;;;;;;5.00;2.53;;;;;;;;;;6098322;23;20002;-76
2023/03/16 04:43:56;;;;;;;4.72;2.38;;;;;;;;;;6124794;23;20002;-76
2023/03/16 04:46:22;;;;;;;5.43;2.28;;;;;;;;;;6125263;23;20445;-75
2023/03/16 04:48:48;;;;;;;6.28;2.00;;;;;;;;;;6125216;23;20458;-74
2023/03/16 04:51:13;;;;;;;4.55;2.00;;;;;;;;;;6124987;23;20002;-74
2023/03/16 04:53:38;;;;;;;4.63;1.90;;;;;;;;;;6125445;23;20005;-73
2023/03/16 04:56:06;;;;;;;6.60;1.90;;;;;;;;;;6124580;23;20009;-77
2023/03/16 04:58:31;;;;;;;5.57;2.15;;;;;;;;;;6124778;23;20009;-76
2023/03/16 05:00:57;;;;;;;4.63;1.80;;;;;;;;;;6124370;23;20017;-76
2023/03/16 05:03:22;;;;;;;4.72;1.70;;;;;;;;;;6125103;23;20013;-76
2023/03/16 05:05:48;;;;;;;5.45;1.77;;;;;;;;;;6124471;23;20358;-77
2023/03/16 05:08:14;;;;;;;7.25;1.95;;;;;;;;;;6125260;23;20010;-75
2023/03/16 05:10:40;;;;;;;3.90;1.50;;;;;;;;;;6098700;23;20474;-75
2023/03/16 05:13:06;;;;;;;3.60;1.50;;;;;;;;;;6124685;23;20103;-77
2023/03/16 05:15:32;;;;;;;4.32;1.48;;;;;;;;;;6124232;23;20006;-77
2023/03/16 05:17:57;;;;;;;4.03;1.70;;;;;;;;;;6124706;23;20440;-76
2023/03/16 05:20:23;;;;;;;4.72;1.63;;;;;;;;;;6124431;23;20012;-77
2023/03/16 05:22:49;;;;;;;6.45;2.25;;;;;;;;;;6124767;23;20006;-76
2023/03/16 05:25:16;;;;;;;5.18;2.15;;;;;;;;;;6124397;23;20024;-76
2023/03/16 05:27:43;;;;;;;4.22;1.67;;;;;;;;;;6098992;23;20010;-76
2023/03/16 05:30:10;;;;;;;3.15;1.50;;;;;;;;;;6124341;23;20006;-75
2023/03/16 05:32:35;;;;;;;3.92;1.30;;;;;;;;;;6124496;23;20339;-77
2023/03/16 05:35:02;;;;;;;4.88;1.50;;;;;;;;;;6124130;23;20435;-75
2023/03/16 05:37:28;;;;;;;4.85;1.70;;;;;;;;;;6124352;23;20470;-74
2023/03/16 05:39:56;;;;;;;2.70;1.42;;;;;;;;;;6124409;23;20006;-75
2023/03/16 05:42:22;;;;;;;5.10;1.50;;;;;;;;;;6124466;23;20080;-76
2023/03/16 05:44:47;;;;;;;4.00;1.10;;;;;;;;;;6124447;23;20382;-76
2023/03/16 05:47:13;;;;;;;4.35;1.35;;;;;;;;;;6124320;23;20032;-77
2023/03/16 05:49:38;;;;;;;2.08;1.00;;;;;;;;;;6098245;23;20089;-76
2023/03/16 05:52:04;;;;;;;3.70;1.10;;;;;;;;;;6123965;23;20489;-76
2023/03/16 05:54:29;;;;;;;3.25;1.30;;;;;;;;;;6124599;23;20033;-76
2023/03/16 05:56:55;;;;;;;4.53;1.33;;;;;;;;;;6123860;23;20010;-76
2023/03/16 05:59:20;;;;;;;4.55;1.73;;;;;;;;;;6124345;23;20014;-77
2023/03/16 06:01:45;;;;;;;2.63;1.15;;;;;;;;;;6124317;23;20022;-76
2023/03/16 06:04:11;;;;;;;4.72;1.25;;;;;;;;;;6124270;23;20033;-77
2023/03/16 06:06:36;;;;;;;3.20;1.30;;;;;;;;;;6123591;23;20074;-75
2023/03/16 06:09:02;;;;;;;2.80;1.10;;;;;;;;;;6124166;23;20002;-76
2023/03/16 06:11:27;;;;;;;3.33;1.00;;;;;;;;;;6124115;23;20634;-75
2023/03/16 06:13:56;;;;;;;7.55;1.10;;;;;;;;;;6124640;23;20005;-75
2023/03/16 06:16:22;;;;;;;3.60;1.15;;;;;;;;;;6097642;23;20010;-76
2023/03/16 06:18:47;;;;;;;3.53;1.10;;;;;;;;;;6124342;23;20021;-74
2023/03/16 06:21:13;;;;;;;4.45;1.23;;;;;;;;;;6123841;23;20049;-74
2023/03/16 06:23:38;;;;;;;4.88;1.10;;;;;;;;;;6123991;23;20010;-74
2023/03/16 06:26:04;;;;;;;2.72;1.10;;;;;;;;;;6123620;23;20002;-74
2023/03/16 06:28:29;;;;;;;4.35;1.58;;;;;;;;;;6123819;23;20394;-74
2023/03/16 06:30:56;;;;;;;4.25;1.48;;;;;;;;;;6123836;23;20081;-74
2023/03/16 06:33:22;;;;;;;5.88;1.52;;;;;;;;;;6123898;23;20037;-76
2023/03/16 06:35:48;;;;;;;8.52;1.20;;;;;;;;;;6123678;23;20002;-75
2023/03/16 06:38:15;;;;;;;3.92;1.50;;;;;;;;;;6124226;23;20016;-74
2023/03/16 06:40:40;;;;;;;4.60;1.30;;;;;;;;;;6123681;23;20081;-73
2023/03/16 06:43:07;;;;;;;4.93;1.50;;;;;;;;;;6123516;23;20044;-77
2023/03/16 06:45:32;;;;;;;8.63;2.38;;;;;;;;;;6123403;23;20022;-73
2023/03/16 06:47:58;;;;;;;8.05;1.48;;;;;;;;;;6123602;23;20005;-74
2023/03/16 06:50:23;;;;;;;5.80;1.00;;;;;;;;;;6123960;23;20002;-74
2023/03/16 06:52:49;;;;;;;6.68;1.00;;;;;;;;;;6123933;23;20002;-75
2023/03/16 06:55:14;;;;;;;3.28;0.98;;;;;;;;;;6097853;23;20698;-75
2023/03/16 06:57:40;;;;;;;3.47;0.90;;;;;;;;;;6123338;23;20017;-74
2023/03/16 07:00:08;;;;;;;2.92;1.10;;;;;;;;;;6123590;23;20119;-73
2023/03/16 07:02:34;;;;;;;2.75;0.77;;;;;;;;;;6123372;23;20022;-74
2023/03/16 07:05:01;;;;;;;3.85;0.90;;;;;;;;;;6123525;23;20012;-74
2023/03/16 07:07:26;;;;;;;4.20;1.20;;;;;;;;;;6123565;23;20030;-74
2023/03/16 07:09:52;;;;;;;2.28;0.90;;;;;;;;;;6123349;23;20025;-78
2023/03/16 07:12:17;;;;;;;3.90;0.93;;;;;;;;;;6123304;23;20575;-75
2023/03/16 07:14:43;;;;;;;5.00;0.82;;;;;;;;;;6124687;23;20080;-74
2023/03/16 07:17:08;;;;;;;2.88;0.93;;;;;;;;;;6123138;23;20029;-73
2023/03/16 07:19:34;;;;;;;2.10;0.77;;;;;;;;;;6123014;23;20006;-73
2023/03/16 07:22:01;;;;;;;4.72;1.10;;;;;;;;;;6133267;23;20006;-78
2023/03/16 07:24:27;;;;;;;3.10;1.00;;;;;;;;;;6134429;23;20061;-78
2023/03/16 07:26:52;;;;;;;4.55;1.00;;;;;;;;;;6107790;23;20004;-75
2023/03/16 07:29:18;;;;;;;3.58;0.73;;;;;;;;;;6134587;23;20185;-76
2023/03/16 07:31:44;;;;;;;2.13;0.77;;;;;;;;;;6108389;23;20045;-81
2023/03/16 07:34:09;;;;;;;4.20;1.00;;;;;;;;;;6134267;23;20013;-79
2023/03/16 07:36:34;;;;;;;6.43;1.10;;;;;;;;;;6134034;23;20298;-87
2023/03/16 07:39:00;;;;;;;3.08;1.00;;;;;;;;;;6134302;23;20045;-74
2023/03/16 07:41:26;;;;;;;8.35;1.27;;;;;;;;;;6133903;23;20022;-74
2023/03/16 07:43:52;;;;;;;4.43;0.95;;;;;;;;;;6133917;23;20238;-74
2023/03/16 07:46:17;;;;;;;2.90;0.88;;;;;;;;;;6134586;23;20061;-78
2023/03/16 07:48:43;;;;;;;6.22;0.95;;;;;;;;;;6134077;23;20061;-76
2023/03/16 07:51:10;;;;;;;5.30;1.00;;;;;;;;;;6134133;23;20229;-75
2023/03/16 07:53:36;;;;;;;2.83;0.75;;;;;;;;;;6108444;23;20029;-75
2023/03/16 07:56:02;;;;;;;4.57;1.00;;;;;;;;;;6133955;23;20021;-75
2023/03/16 07:58:28;;;;;;;6.07;0.90;;;;;;;;;;6133758;23;20289;-75
2023/03/16 08:00:57;;;;;;;3.03;0.90;;;;;;;;;;6133844;23;20006;-74
2023/03/16 08:03:27;;;;;;;5.35;1.00;;;;;;;;;;6134057;23;20050;-73
2023/03/16 08:05:54;;;;;;;3.38;1.00;;;;;;;;;;6133823;23;20014;-78
2023/03/16 08:08:21;;;;;;;4.32;1.15;;;;;;;;;;6133356;23;20381;-81
2023/03/16 08:10:48;;;;;;;4.55;1.15;;;;;;;;;;6133604;23;20045;-76
2023/03/16 08:13:13;;;;;;;4.60;1.00;;;;;;;;;;6134192;23;20319;-75
2023/03/16 08:15:38;;;;;;;7.93;0.95;;;;;;;;;;6133230;23;20349;-74
2023/03/16 08:18:06;;;;;;;4.03;0.90;;;;;;;;;;6133224;23;20021;-75
2023/03/16 08:20:31;;;;;;;6.13;1.13;;;;;;;;;;6134074;23;20032;-74
2023/03/16 08:22:57;;;;;;;4.78;0.80;;;;;;;;;;6107780;23;20057;-75
2023/03/16 08:25:22;;;;;;;4.85;1.00;;;;;;;;;;6133807;23;20009;-75
2023/03/16 08:27:48;;;;;;;3.83;0.80;;;;;;;;;;6132765;23;20006;-75
2023/03/16 08:30:14;;;;;;;4.32;0.70;;;;;;;;;;6133750;23;20301;-75
2023/03/16 08:32:40;;;;;;;4.30;1.10;;;;;;;;;;6133208;23;20005;-75
2023/03/16 08:35:08;;;;;;;4.35;0.88;;;;;;;;;;6107990;23;19998;-75
2023/03/16 08:37:34;;;;;;;5.05;0.80;;;;;;;;;;6133769;23;20021;-72
2023/03/16 08:40:00;;;;;;;2.80;0.70;;;;;;;;;;6133444;23;20301;-74
2023/03/16 08:42:27;;;;;;;5.32;1.00;;;;;;;;;;6132427;23;19998;-74
2023/03/16 08:44:54;;;;;;;5.40;1.00;;;;;;;;;;6133144;23;20041;-75
2023/03/16 08:47:20;;;;;;;5.53;1.13;;;;;;;;;;6128098;23;20025;-75
2023/03/16 08:49:46;;;;;;;3.20;0.90;;;;;;;;;;6100671;23;20072;-74
2023/03/16 08:52:11;;;;;;;3.40;1.00;;;;;;;;;;6124888;23;20390;-73
2023/03/16 08:54:38;;;;;;;3.95;1.00;;;;;;;;;;6124570;23;20118;-74
2023/03/16 08:57:03;;;;;;;3.95;0.80;;;;;;;;;;6129416;23;20002;-75
2023/03/16 08:59:29;;;;;;;3.65;0.90;;;;;;;;;;6133810;23;20106;-75
2023/03/16 09:01:54;;;;;;;3.33;0.80;;;;;;;;;;6132228;23;19998;-75
2023/03/16 09:04:20;;;;;;;3.25;0.80;;;;;;;;;;6132882;23;20009;-74
2023/03/16 09:06:46;;;;;;;5.85;1.10;;;;;;;;;;6132658;23;20074;-73
2023/03/16 09:09:12;;;;;;;2.50;0.90;;;;;;;;;;6132600;23;20009;-74
2023/03/16 09:11:37;;;;;;;2.30;0.88;;;;;;;;;;6132635;23;20002;-72
2023/03/16 09:14:03;;;;;;;2.60;0.90;;;;;;;;;;6132772;23;20063;-72
2023/03/16 09:16:29;;;;;;;2.45;0.80;;;;;;;;;;6132937;23;19994;-74
2023/03/16 09:18:55;;;;;;;8.35;0.90;;;;;;;;;;6132652;23;20009;-72
2023/03/16 09:21:21;;;;;;;11.50;1.20;;;;;;;;;;6132736;23;20297;-75
2023/03/16 09:23:47;;;;;;;3.80;0.85;;;;;;;;;;6132733;23;20018;-74
2023/03/16 09:26:14;;;;;;;4.25;0.93;;;;;;;;;;6132577;23;20223;-73
2023/03/16 09:28:43;;;;;;;9.48;1.05;;;;;;;;;;6133795;23;19997;-73
2023/03/16 09:31:16;;;;;;;3.20;0.87;;;;;;;;;;6134158;23;20008;-73
2023/03/16 09:33:41;;;;;;;4.50;0.98;;;;;;;;;;6132236;23;20057;-71
2023/03/16 09:36:10;;;;;;;3.80;0.80;;;;;;;;;;6133282;23;20005;-72
2023/03/16 09:38:36;;;;;;;4.55;0.85;;;;;;;;;;6132500;23;19998;-72
2023/03/16 09:41:13;;;;;;;1.48;0.70;;;;;;;;;;6133889;23;20174;-72
2023/03/16 09:43:39;;;;;;;5.05;0.90;;;;;;;;;;6132713;23;20002;-72
2023/03/16 09:46:11;;;;;;;4.88;1.00;;;;;;;;;;6132523;23;20285;-76
2023/03/16 09:48:38;;;;;;;3.72;0.80;;;;;;;;;;6134084;23;20049;-79
2023/03/16 09:51:11;;;;;;;3.75;1.02;;;;;;;;;;6134297;23;20010;-75
2023/03/16 09:53:38;;;;;;;3.17;0.90;;;;;;;;;;6134066;23;20312;-78
2023/03/16 09:56:14;;;;;;;5.07;1.17;;;;;;;;;;6133627;23;20049;-77
2023/03/16 09:58:40;;;;;;;4.32;0.80;;;;;;;;;;6133326;23;20001;-75
2023/03/16 10:01:30;;;;;;;2.58;0.82;;;;;;;;;;6133046;23;20442;-76
2023/03/16 10:04:08;;;;;;;4.07;0.90;;;;;;;;;;6122472;23;20017;-75
2023/03/16 10:06:50;;;;;;;4.53;1.20;;;;;;;;;;6127271;23;20013;-74
2023/03/16 10:09:37;;;;;;;4.32;1.00;;;;;;;;;;6124891;23;20012;-72
2023/03/16 10:12:05;;;;;;;4.68;0.98;;;;;;;;;;6127506;23;20040;-73
2023/03/16 10:14:58;;;;;;;4.18;0.82;;;;;;;;;;6130344;23;20045;-73
2023/03/16 10:17:37;;;;;;;3.50;0.90;;;;;;;;;;6133564;23;20289;-73
2023/03/16 10:20:13;;;;;;;2.97;0.80;;;;;;;;;;6131820;23;20340;-73
2023/03/16 10:22:42;;;;;;;3.63;0.90;;;;;;;;;;6128430;23;20013;-72
2023/03/16 10:25:14;;;;;;;5.85;0.93;;;;;;;;;;6122615;23;20037;-73
2023/03/16 10:27:44;;;;;;;2.42;1.00;;;;;;;;;;6124256;23;19997;-74
2023/03/16 10:30:29;;;;;;;9.55;1.33;;;;;;;;;;6124595;23;20061;-74
2023/03/16 10:33:02;;;;;;;8.27;1.08;;;;;;;;;;6132323;23;20290;-74
2023/03/16 10:35:52;;;;;;;8.32;1.25;;;;;;;;;;6133134;23;20002;-74
2023/03/16 10:38:39;;;;;;;3.45;1.00;;;;;;;;;;6126154;23;20006;-73
2023/03/16 10:41:27;;;;;;;4.13;1.00;;;;;;;;;;6128959;23;19998;-74
2023/03/16 10:44:00;;;;;;;3.78;0.80;;;;;;;;;;6111054;23;20056;-74
2023/03/16 10:46:27;;;;;;;1.83;0.73;;;;;;;;;;6130965;23;20061;-71
2023/03/16 10:48:58;;;;;;;3.75;1.00;;;;;;;;;;6129627;23;20029;-73
2023/03/16 10:51:29;;;;;;;5.35;1.05;;;;;;;;;;6127414;23;20297;-74
2023/03/16 10:54:09;;;;;;;5.65;1.05;;;;;;;;;;6132402;23;19998;-74
2023/03/16 10:56:34;;;;;;;3.78;0.90;;;;;;;;;;6133057;23;20386;-71
2023/03/16 10:59:00;;;;;;;2.75;0.90;;;;;;;;;;6131883;23;20021;-70
2023/03/16 11:01:27;;;;;;;3.22;0.80;;;;;;;;;;6132228;23;20185;-71
2023/03/16 11:03:55;;;;;;;3.10;1.00;;;;;;;;;;6124927;23;20013;-70
2023/03/16 11:06:32;;;;;;;1.95;0.90;;;;;;;;;;6125280;23;19994;-73
2023/03/16 11:09:10;;;;;;;5.78;1.00;;;;;;;;;;6131429;23;20217;-72
2023/03/16 11:11:36;;;;;;;2.35;0.80;;;;;;;;;;6129793;23;19998;-70
2023/03/16 11:14:09;;;;;;;3.20;1.13;;;;;;;;;;6127263;23;20297;-70
2023/03/16 11:16:45;;;;;;;3.90;1.05;;;;;;;;;;6126692;23;20193;-72
2023/03/16 11:19:31;;;;;;;4.03;0.88;;;;;;;;;;6131755;23;19994;-70
2023/03/16 11:22:13;;;;;;;5.30;1.10;;;;;;;;;;6095922;23;20386;-70
2023/03/16 11:25:05;;;;;;;2.40;0.73;;;;;;;;;;6129434;23;20017;-71
2023/03/16 11:27:52;;;;;;;3.45;0.95;;;;;;;;;;6131877;23;20009;-74
2023/03/16 11:30:29;;;;;;;4.32;0.80;;;;;;;;;;6133389;23;20009;-81
2023/03/16 11:32:59;;;;;;;3.25;1.00;;;;;;;;;;6132188;23;19994;-78
2023/03/16 11:36:01;;;;;;;4.68;1.15;;;;;;;;;;6131830;23;20105;-74
2023/03/16 11:38:42;;;;;;;3.30;1.00;;;;;;;;;;6132402;23;20021;-71
2023/03/16 11:41:21;;;;;;;3.08;0.82;;;;;;;;;;6132261;23;19998;-72
2023/03/16 11:44:22;;;;;;;4.22;0.85;;;;;;;;;;6106335;23;20174;-72
2023/03/16 11:46:58;;;;;;;3.72;0.85;;;;;;;;;;6110877;23;19998;-77
2023/03/16 11:49:38;;;;;;;4.53;1.00;;;;;;;;;;6128109;23;20222;-71
2023/03/16 11:52:19;;;;;;;3.40;1.08;;;;;;;;;;6130166;23;20006;-68
2023/03/16 11:55:00;;;;;;;4.30;1.00;;;;;;;;;;6128575;23;20057;-67
2023/03/16 11:57:44;;;;;;;;;;;;;;;;;;6132124;23;19998;-72
2023/03/16 12:00:21;;;;;;;5.65;0.98;;;;;;;;;;6131064;23;19909;-70
2023/03/16 12:03:12;;;;;;;6.30;1.13;;;;;;;;;;6131460;23;19997;-73
2023/03/16 12:06:05;;;;;;;5.60;0.95;;;;;;;;;;6121746;23;20006;-75
2023/03/16 12:08:48;;;;;;;2.60;0.85;;;;;;;;;;6122334;23;20002;-73
2023/03/16 12:11:23;;;;;;;6.22;1.20;;;;;;;;;;6099443;23;20002;-70
2023/03/16 12:14:00;;;;;;;4.57;1.08;;;;;;;;;;6131229;23;19998;-70
2023/03/16 12:16:28;;;;;;;2.10;0.80;;;;;;;;;;6124010;23;20022;-71
2023/03/16 12:19:00;;;;;;;2.55;1.10;;;;;;;;;;6129373;23;20555;-71
2023/03/16 12:21:44;;;;;;;5.00;1.10;;;;;;;;;;6133080;23;20308;-71
2023/03/16 12:24:34;;;;;;;4.65;1.17;;;;;;;;;;6133390;23;20020;-71
2023/03/16 12:27:00;;;;;;;4.33;1.00;;;;;;;;;;6132860;23;20002;-70
2023/03/16 12:29:45;;;;;;;5.22;1.05;;;;;;;;;;6130478;23;20509;-70
2023/03/16 12:32:35;;;;;;;5.20;1.15;;;;;;;;;;6120588;23;20006;-70
2023/03/16 12:35:21;;;;;;;5.03;1.10;;;;;;;;;;6129408;23;20006;-71
2023/03/16 12:38:01;;;;;;;6.35;1.40;;;;;;;;;;6132981;23;20234;-71
2023/03/16 12:40:41;;;;;;;4.03;1.00;;;;;;;;;;6132836;23;20009;-71
2023/03/16 12:43:09;;;;;;;3.95;1.10;;;;;;;;;;6125429;23;20037;-75
2023/03/16 12:45:59;;;;;;;4.65;1.23;;;;;;;;;;6131127;23;20069;-72
2023/03/16 12:48:29;;;;;;;5.32;1.20;;;;;;;;;;6124594;23;19998;-80
2023/03/16 12:51:00;;;;;;;3.85;1.33;;;;;;;;;;6125187;23;20058;-75
2023/03/16 12:53:52;;;;;;;4.80;1.25;;;;;;;;;;6129800;23;19990;-76
2023/03/16 12:56:32;;;;;;;6.18;1.30;;;;;;;;;;6128459;23;20006;-73
2023/03/16 12:59:02;;;;;;;3.08;1.17;;;;;;;;;;6129992;23;20016;-73
2023/03/16 13:01:36;;;;;;;5.22;1.40;;;;;;;;;;6126735;23;20024;-72
2023/03/16 13:04:29;;;;;;;8.75;1.35;;;;;;;;;;6127838;23;20041;-72
2023/03/16 13:07:07;;;;;;;5.35;1.17;;;;;;;;;;6131585;23;20249;-72
2023/03/16 13:09:40;;;;;;;4.47;1.27;;;;;;;;;;6132721;23;20022;-72
2023/03/16 13:12:06;;;;;;;5.40;1.40;;;;;;;;;;6101087;23;20016;-72
2023/03/16 13:14:42;;;;;;;7.40;1.25;;;;;;;;;;6133755;23;20018;-76
2023/03/16 13:17:16;;;;;;;4.10;1.05;;;;;;;;;;6134365;23;20002;-77
2023/03/16 13:19:45;;;;;;;6.43;1.60;;;;;;;;;;6134230;23;20244;-72
2023/03/16 13:22:52;;;;;;;6.35;1.50;;;;;;;;;;6134693;23;20290;-80
2023/03/16 13:25:39;;;;;;;7.80;1.30;;;;;;;;;;5988731;24;20004;-73
2023/03/16 13:28:05;;;;;;;4.82;1.25;;;;;;;;;;5988094;24;20033;-74
2023/03/16 13:30:46;;;;;;;6.55;1.30;;;;;;;;;;6080819;23;20001;-71
2023/03/16 13:33:19;;;;;;;5.95;1.20;;;;;;;;;;6126269;23;20002;-77
2023/03/16 13:35:47;;;;;;;9.50;1.10;;;;;;;;;;6104691;23;19998;-76
2023/03/16 13:38:17;;;;;;;6.57;1.30;;;;;;;;;;6133648;23;20002;-73
2023/03/16 13:40:47;;;;;;;9.40;1.13;;;;;;;;;;6133933;23;20053;-75
2023/03/16 13:43:17;;;;;;;4.60;1.27;;;;;;;;;;6132164;23;20005;-77
2023/03/16 13:45:43;;;;;;;8.90;1.13;;;;;;;;;;6124935;23;20006;-78
2023/03/16 13:48:13;;;;;;;6.47;1.00;;;;;;;;;;6131559;23;20060;-74
2023/03/16 13:50:41;;;;;;;7.80;1.10;;;;;;;;;;6122623;23;20445;-77
2023/03/16 13:53:17;;;;;;;9.18;1.30;;;;;;;;;;6123923;23;20014;-71
2023/03/16 13:55:46;;;;;;;6.35;1.25;;;;;;;;;;6119078;23;20002;-70
2023/03/16 13:58:36;;;;;;;6.55;1.38;;;;;;;;;;6119391;23;20006;-75
2023/03/16 14:01:04;;;;;;;6.45;1.08;;;;;;;;;;6102586;23;20017;-72
2023/03/16 14:03:32;;;;;;;7.45;1.30;;;;;;;;;;6119258;23;20113;-70
2023/03/16 14:05:58;;;;;;;4.07;1.25;;;;;;;;;;6119040;23;20016;-71
2023/03/16 14:08:25;;;;;;;8.30;1.40;;;;;;;;;;6120059;23;20093;-74
2023/03/16 14:10:53;;;;;;;7.95;0.93;;;;;;;;;;6120662;23;20394;-73
2023/03/16 14:13:28;;;;;;;4.28;1.00;;;;;;;;;;6120752;23;20010;-70
2023/03/16 14:15:56;;;;;;;4.07;1.00;;;;;;;;;;6121255;23;20002;-70
2023/03/16 14:18:45;;;;;;;3.97;1.15;;;;;;;;;;6121985;23;20006;-70
2023/03/16 14:21:28;;;;;;;5.45;1.08;;;;;;;;;;6122105;23;20077;-70
2023/03/16 14:23:57;;;;;;;6.43;1.02;;;;;;;;;;6121722;23;20335;-71
2023/03/16 14:26:23;;;;;;;5.22;0.98;;;;;;;;;;6122584;23;20025;-72
2023/03/16 14:29:15;;;;;;;4.72;1.10;;;;;;;;;;6123524;23;20338;-71
2023/03/16 14:31:40;;;;;;;4.57;1.48;;;;;;;;;;6122809;23;20801;-70
2023/03/16 14:34:27;;;;;;;6.65;1.20;;;;;;;;;;6123250;23;20089;-70
2023/03/16 14:37:04;;;;;;;4.55;1.00;;;;;;;;;;6122520;23;20036;-69
2023/03/16 14:39:29;;;;;;;8.10;1.40;;;;;;;;;;6122654;23;20704;-69
2023/03/16 14:41:55;;;;;;;9.07;1.40;;;;;;;;;;6122118;23;20006;-71
2023/03/16 14:44:27;;;;;;;6.57;1.35;;;;;;;;;;6123129;23;20039;-73
2023/03/16 14:46:58;;;;;;;6.35;1.50;;;;;;;;;;6122710;23;20020;-72
2023/03/16 14:49:27;;;;;;;4.93;1.20;;;;;;;;;;6123165;23;20002;-69
2023/03/16 14:51:57;;;;;;;4.78;1.20;;;;;;;;;;6122745;23;20010;-70
2023/03/16 14:54:27;;;;;;;;;;;;;;;;;;6123566;23;20032;-70
2023/03/16 14:56:58;;;;;;;5.47;1.20;;;;;;;;;;6122276;23;19908;-72
2023/03/16 14:59:23;;;;;;;4.13;1.17;;;;;;;;;;6096497;23;20014;-71